sensor_id;sensor_type;location;lat;lon;timestamp;P1;durP1;ratioP1;P2;durP2;ratioP2
75499;SDS011;64076;51.466;7.260;2023-05-23T00:00:49;13.40;;;11.70;;
75499;SDS011;64076;51.466;7.260;2023-05-23T00:03:16;13.27;;;11.55;;
75499;SDS011;64076;51.466;7.260;2023-05-23T00:05:41;13.43;;;12.13;;
75499;SDS011;64076;51.466;7.260;2023-05-23T00:08:07;14.23;;;12.33;;
75499;SDS011;64076;51.466;7.260;2023-05-23T00:10:32;12.68;;;11.38;;
75499;SDS011;64076;51.466;7.260;2023-05-23T00:12:58;13.53;;;11.97;;
75499;SDS011;64076;51.466;7.260;2023-05-23T00:15:23;13.47;;;12.03;;
75499;SDS011;64076;51.466;7.260;2023-05-23T00:17:49;13.27;;;11.60;;
75499;SDS011;64076;51.466;7.260;2023-05-23T00:20:15;13.07;;;11.77;;
75499;SDS011;64076;51.466;7.260;2023-05-23T00:22:40;13.40;;;11.70;;
75499;SDS011;64076;51.466;7.260;2023-05-23T00:25:07;13.80;;;11.60;;
75499;SDS011;64076;51.466;7.260;2023-05-23T00:27:34;12.30;;;10.98;;
75499;SDS011;64076;51.466;7.260;2023-05-23T00:30:00;12.37;;;11.07;;
75499;SDS011;64076;51.466;7.260;2023-05-23T00:32:25;13.60;;;12.02;;
75499;SDS011;64076;51.466;7.260;2023-05-23T00:34:51;13.50;;;11.93;;
75499;SDS011;64076;51.466;7.260;2023-05-23T00:37:18;12.88;;;11.57;;
75499;SDS011;64076;51.466;7.260;2023-05-23T00:39:44;13.88;;;11.57;;
75499;SDS011;64076;51.466;7.260;2023-05-23T00:42:10;14.20;;;12.63;;
75499;SDS011;64076;51.466;7.260;2023-05-23T00:44:35;13.52;;;11.88;;
75499;SDS011;64076;51.466;7.260;2023-05-23T00:47:01;12.80;;;11.50;;
75499;SDS011;64076;51.466;7.260;2023-05-23T00:49:26;12.30;;;11.03;;
75499;SDS011;64076;51.466;7.260;2023-05-23T00:51:52;12.38;;;11.07;;
75499;SDS011;64076;51.466;7.260;2023-05-23T00:54:20;12.43;;;11.13;;
75499;SDS011;64076;51.466;7.260;2023-05-23T00:56:51;12.85;;;11.55;;
75499;SDS011;64076;51.466;7.260;2023-05-23T00:59:17;12.40;;;11.07;;
75499;SDS011;64076;51.466;7.260;2023-05-23T01:01:45;12.50;;;11.20;;
75499;SDS011;64076;51.466;7.260;2023-05-23T01:04:12;12.45;;;10.70;;
75499;SDS011;64076;51.466;7.260;2023-05-23T01:06:38;12.40;;;11.07;;
75499;SDS011;64076;51.466;7.260;2023-05-23T01:09:04;12.20;;;10.90;;
75499;SDS011;64076;51.466;7.260;2023-05-23T01:11:34;11.90;;;10.70;;
75499;SDS011;64076;51.466;7.260;2023-05-23T01:14:09;13.10;;;11.00;;
75499;SDS011;64076;51.466;7.260;2023-05-23T01:22:34;12.95;;;11.07;;
75499;SDS011;64076;51.466;7.260;2023-05-23T01:27:56;12.02;;;10.63;;
75499;SDS011;64076;51.466;7.260;2023-05-23T01:30:25;11.73;;;10.50;;
75499;SDS011;64076;51.466;7.260;2023-05-23T01:32:56;11.82;;;10.15;;
75499;SDS011;64076;51.466;7.260;2023-05-23T01:35:23;12.70;;;10.77;;
75499;SDS011;64076;51.466;7.260;2023-05-23T01:37:51;11.85;;;10.52;;
75499;SDS011;64076;51.466;7.260;2023-05-23T01:40:18;11.13;;;9.98;;
75499;SDS011;64076;51.466;7.260;2023-05-23T01:42:44;11.50;;;10.10;;
75499;SDS011;64076;51.466;7.260;2023-05-23T01:45:10;11.00;;;9.90;;
75499;SDS011;64076;51.466;7.260;2023-05-23T01:47:36;11.15;;;9.95;;
75499;SDS011;64076;51.466;7.260;2023-05-23T01:50:04;11.55;;;9.88;;
75499;SDS011;64076;51.466;7.260;2023-05-23T01:52:31;12.10;;;9.33;;
75499;SDS011;64076;51.466;7.260;2023-05-23T01:54:57;11.18;;;10.00;;
75499;SDS011;64076;51.466;7.260;2023-05-23T01:57:23;11.15;;;9.95;;
75499;SDS011;64076;51.466;7.260;2023-05-23T01:59:51;11.60;;;10.30;;
75499;SDS011;64076;51.466;7.260;2023-05-23T02:02:16;11.37;;;10.20;;
75499;SDS011;64076;51.466;7.260;2023-05-23T02:04:42;10.60;;;9.50;;
75499;SDS011;64076;51.466;7.260;2023-05-23T02:07:08;10.68;;;9.52;;
75499;SDS011;64076;51.466;7.260;2023-05-23T02:09:33;10.90;;;9.80;;
75499;SDS011;64076;51.466;7.260;2023-05-23T02:11:59;10.93;;;9.77;;
75499;SDS011;64076;51.466;7.260;2023-05-23T02:14:25;11.13;;;9.93;;
75499;SDS011;64076;51.466;7.260;2023-05-23T02:16:52;11.50;;;9.98;;
75499;SDS011;64076;51.466;7.260;2023-05-23T02:19:17;10.27;;;9.27;;
75499;SDS011;64076;51.466;7.260;2023-05-23T02:21:43;11.05;;;9.95;;
75499;SDS011;64076;51.466;7.260;2023-05-23T02:24:09;10.80;;;9.63;;
75499;SDS011;64076;51.466;7.260;2023-05-23T02:26:35;10.93;;;9.73;;
75499;SDS011;64076;51.466;7.260;2023-05-23T02:29:01;11.70;;;10.50;;
75499;SDS011;64076;51.466;7.260;2023-05-23T02:31:26;10.70;;;9.60;;
75499;SDS011;64076;51.466;7.260;2023-05-23T02:33:52;13.15;;;10.23;;
75499;SDS011;64076;51.466;7.260;2023-05-23T02:36:17;10.83;;;9.73;;
75499;SDS011;64076;51.466;7.260;2023-05-23T02:38:43;11.30;;;9.90;;
75499;SDS011;64076;51.466;7.260;2023-05-23T02:41:11;11.60;;;9.75;;
75499;SDS011;64076;51.466;7.260;2023-05-23T02:43:37;11.47;;;9.70;;
75499;SDS011;64076;51.466;7.260;2023-05-23T02:46:03;10.75;;;9.65;;
75499;SDS011;64076;51.466;7.260;2023-05-23T02:48:28;11.13;;;9.90;;
75499;SDS011;64076;51.466;7.260;2023-05-23T02:50:54;11.43;;;9.70;;
75499;SDS011;64076;51.466;7.260;2023-05-23T02:53:20;10.43;;;9.32;;
75499;SDS011;64076;51.466;7.260;2023-05-23T02:55:46;11.65;;;10.45;;
75499;SDS011;64076;51.466;7.260;2023-05-23T02:58:12;11.10;;;9.87;;
75499;SDS011;64076;51.466;7.260;2023-05-23T03:00:37;11.10;;;9.57;;
75499;SDS011;64076;51.466;7.260;2023-05-23T03:03:03;10.95;;;9.75;;
75499;SDS011;64076;51.466;7.260;2023-05-23T03:05:28;11.57;;;10.07;;
75499;SDS011;64076;51.466;7.260;2023-05-23T03:07:54;11.27;;;10.03;;
75499;SDS011;64076;51.466;7.260;2023-05-23T03:10:19;10.88;;;9.75;;
75499;SDS011;64076;51.466;7.260;2023-05-23T03:12:45;10.90;;;9.80;;
75499;SDS011;64076;51.466;7.260;2023-05-23T03:15:11;11.15;;;10.05;;
75499;SDS011;64076;51.466;7.260;2023-05-23T03:17:36;11.23;;;9.50;;
75499;SDS011;64076;51.466;7.260;2023-05-23T03:20:02;10.33;;;9.23;;
75499;SDS011;64076;51.466;7.260;2023-05-23T03:22:29;11.13;;;9.82;;
75499;SDS011;64076;51.466;7.260;2023-05-23T03:24:54;11.05;;;9.88;;
75499;SDS011;64076;51.466;7.260;2023-05-23T03:27:20;11.10;;;9.90;;
75499;SDS011;64076;51.466;7.260;2023-05-23T03:29:45;12.10;;;10.80;;
75499;SDS011;64076;51.466;7.260;2023-05-23T03:32:12;12.00;;;10.00;;
75499;SDS011;64076;51.466;7.260;2023-05-23T03:34:37;10.40;;;9.30;;
75499;SDS011;64076;51.466;7.260;2023-05-23T03:37:03;10.63;;;9.50;;
75499;SDS011;64076;51.466;7.260;2023-05-23T03:39:29;10.87;;;9.77;;
75499;SDS011;64076;51.466;7.260;2023-05-23T03:41:55;11.15;;;9.95;;
75499;SDS011;64076;51.466;7.260;2023-05-23T03:44:20;11.50;;;10.23;;
75499;SDS011;64076;51.466;7.260;2023-05-23T03:46:46;10.80;;;9.70;;
75499;SDS011;64076;51.466;7.260;2023-05-23T03:49:11;10.63;;;9.43;;
75499;SDS011;64076;51.466;7.260;2023-05-23T03:51:37;10.70;;;9.10;;
75499;SDS011;64076;51.466;7.260;2023-05-23T03:54:02;10.95;;;9.30;;
75499;SDS011;64076;51.466;7.260;2023-05-23T03:56:28;10.60;;;8.73;;
75499;SDS011;64076;51.466;7.260;2023-05-23T03:58:53;11.60;;;10.37;;
75499;SDS011;64076;51.466;7.260;2023-05-23T04:01:19;10.43;;;9.20;;
75499;SDS011;64076;51.466;7.260;2023-05-23T04:03:44;10.57;;;9.30;;
75499;SDS011;64076;51.466;7.260;2023-05-23T04:06:10;10.23;;;9.10;;
75499;SDS011;64076;51.466;7.260;2023-05-23T04:08:35;9.68;;;8.68;;
75499;SDS011;64076;51.466;7.260;2023-05-23T04:11:01;10.40;;;9.20;;
75499;SDS011;64076;51.466;7.260;2023-05-23T04:13:27;10.45;;;8.73;;
75499;SDS011;64076;51.466;7.260;2023-05-23T04:15:54;12.07;;;9.27;;
75499;SDS011;64076;51.466;7.260;2023-05-23T04:18:20;9.88;;;8.85;;
75499;SDS011;64076;51.466;7.260;2023-05-23T04:20:47;10.35;;;9.23;;
75499;SDS011;64076;51.466;7.260;2023-05-23T04:23:13;10.47;;;8.97;;
75499;SDS011;64076;51.466;7.260;2023-05-23T04:25:38;11.57;;;8.63;;
75499;SDS011;64076;51.466;7.260;2023-05-23T04:28:04;9.93;;;8.83;;
75499;SDS011;64076;51.466;7.260;2023-05-23T04:30:30;9.52;;;8.45;;
75499;SDS011;64076;51.466;7.260;2023-05-23T04:32:57;9.82;;;8.82;;
75499;SDS011;64076;51.466;7.260;2023-05-23T04:35:23;9.80;;;8.80;;
75499;SDS011;64076;51.466;7.260;2023-05-23T04:37:50;10.30;;;8.50;;
75499;SDS011;64076;51.466;7.260;2023-05-23T04:40:20;10.20;;;8.55;;
75499;SDS011;64076;51.466;7.260;2023-05-23T04:42:47;10.63;;;8.15;;
75499;SDS011;64076;51.466;7.260;2023-05-23T04:45:13;10.07;;;8.48;;
75499;SDS011;64076;51.466;7.260;2023-05-23T04:47:39;9.33;;;8.13;;
75499;SDS011;64076;51.466;7.260;2023-05-23T04:50:05;10.35;;;8.65;;
75499;SDS011;64076;51.466;7.260;2023-05-23T04:52:31;9.45;;;8.45;;
75499;SDS011;64076;51.466;7.260;2023-05-23T04:54:58;9.95;;;8.65;;
75499;SDS011;64076;51.466;7.260;2023-05-23T04:57:24;9.90;;;8.13;;
75499;SDS011;64076;51.466;7.260;2023-05-23T04:59:50;9.20;;;8.30;;
75499;SDS011;64076;51.466;7.260;2023-05-23T05:02:15;9.33;;;8.33;;
75499;SDS011;64076;51.466;7.260;2023-05-23T05:04:41;8.60;;;7.63;;
75499;SDS011;64076;51.466;7.260;2023-05-23T05:07:06;9.32;;;8.25;;
75499;SDS011;64076;51.466;7.260;2023-05-23T05:09:32;9.63;;;8.10;;
75499;SDS011;64076;51.466;7.260;2023-05-23T05:11:57;9.20;;;8.30;;
75499;SDS011;64076;51.466;7.260;2023-05-23T05:14:24;8.20;;;7.25;;
75499;SDS011;64076;51.466;7.260;2023-05-23T05:16:50;9.50;;;6.72;;
75499;SDS011;64076;51.466;7.260;2023-05-23T05:19:16;8.07;;;6.50;;
75499;SDS011;64076;51.466;7.260;2023-05-23T05:21:42;7.03;;;6.32;;
75499;SDS011;64076;51.466;7.260;2023-05-23T05:24:07;8.40;;;5.80;;
75499;SDS011;64076;51.466;7.260;2023-05-23T05:26:36;6.38;;;5.70;;
75499;SDS011;64076;51.466;7.260;2023-05-23T05:29:02;6.40;;;5.73;;
75499;SDS011;64076;51.466;7.260;2023-05-23T05:31:28;5.88;;;5.28;;
75499;SDS011;64076;51.466;7.260;2023-05-23T05:33:53;5.90;;;5.17;;
75499;SDS011;64076;51.466;7.260;2023-05-23T05:36:19;5.53;;;4.93;;
75499;SDS011;64076;51.466;7.260;2023-05-23T05:38:45;5.53;;;4.85;;
75499;SDS011;64076;51.466;7.260;2023-05-23T05:41:11;5.30;;;4.50;;
75499;SDS011;64076;51.466;7.260;2023-05-23T05:43:37;5.78;;;4.57;;
75499;SDS011;64076;51.466;7.260;2023-05-23T05:46:03;4.70;;;4.20;;
75499;SDS011;64076;51.466;7.260;2023-05-23T05:48:28;4.82;;;4.25;;
75499;SDS011;64076;51.466;7.260;2023-05-23T05:50:54;4.72;;;4.00;;
75499;SDS011;64076;51.466;7.260;2023-05-23T05:53:20;4.50;;;4.00;;
75499;SDS011;64076;51.466;7.260;2023-05-23T05:55:45;4.37;;;3.83;;
75499;SDS011;64076;51.466;7.260;2023-05-23T05:58:11;5.13;;;4.07;;
75499;SDS011;64076;51.466;7.260;2023-05-23T06:00:36;4.53;;;3.67;;
75499;SDS011;64076;51.466;7.260;2023-05-23T06:03:08;4.70;;;4.05;;
75499;SDS011;64076;51.466;7.260;2023-05-23T06:05:35;4.47;;;3.65;;
75499;SDS011;64076;51.466;7.260;2023-05-23T06:08:01;4.40;;;3.83;;
75499;SDS011;64076;51.466;7.260;2023-05-23T06:10:27;4.57;;;3.80;;
75499;SDS011;64076;51.466;7.260;2023-05-23T06:12:54;4.50;;;4.00;;
75499;SDS011;64076;51.466;7.260;2023-05-23T06:15:20;4.05;;;3.55;;
75499;SDS011;64076;51.466;7.260;2023-05-23T06:17:45;4.38;;;3.72;;
75499;SDS011;64076;51.466;7.260;2023-05-23T06:20:11;4.30;;;3.50;;
75499;SDS011;64076;51.466;7.260;2023-05-23T06:22:36;4.27;;;3.70;;
75499;SDS011;64076;51.466;7.260;2023-05-23T06:25:02;4.57;;;3.80;;
75499;SDS011;64076;51.466;7.260;2023-05-23T06:27:28;4.80;;;3.95;;
75499;SDS011;64076;51.466;7.260;2023-05-23T06:29:54;4.20;;;3.20;;
75499;SDS011;64076;51.466;7.260;2023-05-23T06:32:19;3.73;;;3.27;;
75499;SDS011;64076;51.466;7.260;2023-05-23T06:34:45;3.72;;;3.15;;
75499;SDS011;64076;51.466;7.260;2023-05-23T06:37:10;4.80;;;3.17;;
75499;SDS011;64076;51.466;7.260;2023-05-23T06:39:36;90.53;;;8.83;;
75499;SDS011;64076;51.466;7.260;2023-05-23T06:42:01;30.13;;;4.50;;
75499;SDS011;64076;51.466;7.260;2023-05-23T06:44:28;23.17;;;4.22;;
75499;SDS011;64076;51.466;7.260;2023-05-23T06:46:53;17.50;;;4.20;;
75499;SDS011;64076;51.466;7.260;2023-05-23T06:49:23;9.38;;;3.42;;
75499;SDS011;64076;51.466;7.260;2023-05-23T06:51:49;13.23;;;4.73;;
75499;SDS011;64076;51.466;7.260;2023-05-23T06:54:15;14.35;;;4.10;;
75499;SDS011;64076;51.466;7.260;2023-05-23T06:56:41;9.98;;;3.90;;
75499;SDS011;64076;51.466;7.260;2023-05-23T06:59:06;6.87;;;3.80;;
75499;SDS011;64076;51.466;7.260;2023-05-23T07:01:32;7.73;;;3.60;;
75499;SDS011;64076;51.466;7.260;2023-05-23T07:03:57;5.65;;;3.55;;
75499;SDS011;64076;51.466;7.260;2023-05-23T07:06:23;6.00;;;3.87;;
75499;SDS011;64076;51.466;7.260;2023-05-23T07:08:48;5.10;;;3.60;;
75499;SDS011;64076;51.466;7.260;2023-05-23T07:11:14;6.13;;;4.63;;
75499;SDS011;64076;51.466;7.260;2023-05-23T07:13:39;7.13;;;3.97;;
75499;SDS011;64076;51.466;7.260;2023-05-23T07:16:05;4.97;;;4.20;;
75499;SDS011;64076;51.466;7.260;2023-05-23T07:18:31;8.67;;;4.30;;
75499;SDS011;64076;51.466;7.260;2023-05-23T07:20:56;5.10;;;4.33;;
75499;SDS011;64076;51.466;7.260;2023-05-23T07:23:22;7.55;;;4.38;;
75499;SDS011;64076;51.466;7.260;2023-05-23T07:25:51;4.90;;;4.00;;
75499;SDS011;64076;51.466;7.260;2023-05-23T07:28:16;7.40;;;4.30;;
75499;SDS011;64076;51.466;7.260;2023-05-23T07:30:43;4.68;;;4.03;;
75499;SDS011;64076;51.466;7.260;2023-05-23T07:33:08;5.03;;;4.50;;
75499;SDS011;64076;51.466;7.260;2023-05-23T07:35:34;5.10;;;4.27;;
75499;SDS011;64076;51.466;7.260;2023-05-23T07:37:59;6.40;;;4.40;;
75499;SDS011;64076;51.466;7.260;2023-05-23T07:40:25;5.93;;;4.43;;
75499;SDS011;64076;51.466;7.260;2023-05-23T07:42:51;8.90;;;3.72;;
75499;SDS011;64076;51.466;7.260;2023-05-23T07:45:18;7.97;;;3.72;;
75499;SDS011;64076;51.466;7.260;2023-05-23T07:47:43;7.20;;;4.07;;
75499;SDS011;64076;51.466;7.260;2023-05-23T07:50:09;6.33;;;3.90;;
75499;SDS011;64076;51.466;7.260;2023-05-23T07:52:35;5.20;;;3.90;;
75499;SDS011;64076;51.466;7.260;2023-05-23T07:55:00;6.70;;;4.37;;
75499;SDS011;64076;51.466;7.260;2023-05-23T07:57:26;8.82;;;4.57;;
75499;SDS011;64076;51.466;7.260;2023-05-23T07:59:52;7.03;;;4.43;;
75499;SDS011;64076;51.466;7.260;2023-05-23T08:02:18;9.07;;;4.25;;
75499;SDS011;64076;51.466;7.260;2023-05-23T08:04:44;8.77;;;4.25;;
75499;SDS011;64076;51.466;7.260;2023-05-23T08:07:11;6.30;;;4.10;;
75499;SDS011;64076;51.466;7.260;2023-05-23T08:09:37;9.37;;;4.40;;
75499;SDS011;64076;51.466;7.260;2023-05-23T08:12:04;9.97;;;4.50;;
75499;SDS011;64076;51.466;7.260;2023-05-23T08:14:30;8.00;;;4.57;;
75499;SDS011;64076;51.466;7.260;2023-05-23T08:16:56;7.97;;;4.15;;
75499;SDS011;64076;51.466;7.260;2023-05-23T08:19:22;7.87;;;5.10;;
75499;SDS011;64076;51.466;7.260;2023-05-23T08:21:47;8.33;;;4.20;;
75499;SDS011;64076;51.466;7.260;2023-05-23T08:24:13;8.43;;;4.65;;
75499;SDS011;64076;51.466;7.260;2023-05-23T08:26:38;6.33;;;4.03;;
75499;SDS011;64076;51.466;7.260;2023-05-23T08:29:04;93.83;;;10.33;;
75499;SDS011;64076;51.466;7.260;2023-05-23T08:31:30;13.27;;;4.93;;
75499;SDS011;64076;51.466;7.260;2023-05-23T08:33:58;14.90;;;4.50;;
75499;SDS011;64076;51.466;7.260;2023-05-23T08:36:24;9.48;;;4.60;;
75499;SDS011;64076;51.466;7.260;2023-05-23T08:38:50;10.07;;;4.00;;
75499;SDS011;64076;51.466;7.260;2023-05-23T08:41:19;8.52;;;3.63;;
75499;SDS011;64076;51.466;7.260;2023-05-23T08:43:48;9.02;;;3.78;;
75499;SDS011;64076;51.466;7.260;2023-05-23T08:46:14;5.55;;;3.80;;
75499;SDS011;64076;51.466;7.260;2023-05-23T08:48:42;5.00;;;3.33;;
75499;SDS011;64076;51.466;7.260;2023-05-23T08:51:09;7.68;;;3.72;;
75499;SDS011;64076;51.466;7.260;2023-05-23T08:53:39;5.82;;;3.30;;
75499;SDS011;64076;51.466;7.260;2023-05-23T08:56:07;8.90;;;4.22;;
75499;SDS011;64076;51.466;7.260;2023-05-23T08:58:35;5.72;;;3.58;;
75499;SDS011;64076;51.466;7.260;2023-05-23T09:01:02;6.00;;;3.30;;
75499;SDS011;64076;51.466;7.260;2023-05-23T09:03:28;6.25;;;3.40;;
75499;SDS011;64076;51.466;7.260;2023-05-23T09:05:54;5.43;;;3.37;;
75499;SDS011;64076;51.466;7.260;2023-05-23T09:08:20;6.45;;;3.60;;
75499;SDS011;64076;51.466;7.260;2023-05-23T09:10:49;6.30;;;3.70;;
75499;SDS011;64076;51.466;7.260;2023-05-23T09:13:15;7.53;;;3.95;;
75499;SDS011;64076;51.466;7.260;2023-05-23T09:18:36;6.87;;;3.83;;
75499;SDS011;64076;51.466;7.260;2023-05-23T09:21:02;6.95;;;4.30;;
75499;SDS011;64076;51.466;7.260;2023-05-23T09:23:32;6.50;;;3.40;;
75499;SDS011;64076;51.466;7.260;2023-05-23T09:26:02;4.82;;;3.60;;
75499;SDS011;64076;51.466;7.260;2023-05-23T09:28:29;6.28;;;3.50;;
75499;SDS011;64076;51.466;7.260;2023-05-23T09:30:59;5.80;;;3.40;;
75499;SDS011;64076;51.466;7.260;2023-05-23T09:36:04;6.38;;;3.60;;
75499;SDS011;64076;51.466;7.260;2023-05-23T09:38:31;6.30;;;3.22;;
75499;SDS011;64076;51.466;7.260;2023-05-23T09:40:57;4.97;;;3.25;;
75499;SDS011;64076;51.466;7.260;2023-05-23T09:43:23;8.57;;;2.83;;
75499;SDS011;64076;51.466;7.260;2023-05-23T09:45:49;6.85;;;3.50;;
75499;SDS011;64076;51.466;7.260;2023-05-23T09:48:16;6.78;;;3.55;;
75499;SDS011;64076;51.466;7.260;2023-05-23T09:50:44;7.97;;;3.10;;
75499;SDS011;64076;51.466;7.260;2023-05-23T09:53:10;5.72;;;3.45;;
75499;SDS011;64076;51.466;7.260;2023-05-23T09:55:35;6.53;;;3.13;;
75499;SDS011;64076;51.466;7.260;2023-05-23T09:58:01;7.88;;;3.10;;
75499;SDS011;64076;51.466;7.260;2023-05-23T10:00:28;7.93;;;3.30;;
75499;SDS011;64076;51.466;7.260;2023-05-23T10:03:09;7.53;;;3.03;;
75499;SDS011;64076;51.466;7.260;2023-05-23T10:08:33;13.02;;;4.20;;
75499;SDS011;64076;51.466;7.260;2023-05-23T10:13:44;11.05;;;4.05;;
75499;SDS011;64076;51.466;7.260;2023-05-23T10:18:55;7.30;;;3.70;;
75499;SDS011;64076;51.466;7.260;2023-05-23T10:21:29;9.45;;;3.63;;
75499;SDS011;64076;51.466;7.260;2023-05-23T10:24:00;7.90;;;4.00;;
75499;SDS011;64076;51.466;7.260;2023-05-23T10:26:27;8.18;;;4.40;;
75499;SDS011;64076;51.466;7.260;2023-05-23T10:28:53;7.30;;;4.60;;
75499;SDS011;64076;51.466;7.260;2023-05-23T10:31:20;5.97;;;4.25;;
75499;SDS011;64076;51.466;7.260;2023-05-23T10:33:49;7.57;;;4.63;;
75499;SDS011;64076;51.466;7.260;2023-05-23T10:36:33;7.15;;;4.70;;
75499;SDS011;64076;51.466;7.260;2023-05-23T10:42:10;9.43;;;4.93;;
75499;SDS011;64076;51.466;7.260;2023-05-23T10:44:41;8.32;;;5.20;;
75499;SDS011;64076;51.466;7.260;2023-05-23T10:47:06;8.83;;;5.67;;
75499;SDS011;64076;51.466;7.260;2023-05-23T10:49:44;6.43;;;4.85;;
75499;SDS011;64076;51.466;7.260;2023-05-23T10:52:12;9.18;;;4.70;;
75499;SDS011;64076;51.466;7.260;2023-05-23T10:54:49;8.50;;;4.83;;
75499;SDS011;64076;51.466;7.260;2023-05-23T10:57:21;8.45;;;5.20;;
75499;SDS011;64076;51.466;7.260;2023-05-23T10:59:54;7.90;;;4.28;;
75499;SDS011;64076;51.466;7.260;2023-05-23T11:02:26;6.00;;;4.15;;
75499;SDS011;64076;51.466;7.260;2023-05-23T11:16:30;7.15;;;4.00;;
75499;SDS011;64076;51.466;7.260;2023-05-23T11:21:45;13.23;;;4.60;;
75499;SDS011;64076;51.466;7.260;2023-05-23T11:24:13;19.33;;;4.90;;
75499;SDS011;64076;51.466;7.260;2023-05-23T11:26:38;18.15;;;4.63;;
75499;SDS011;64076;51.466;7.260;2023-05-23T11:29:08;14.77;;;4.77;;
75499;SDS011;64076;51.466;7.260;2023-05-23T11:31:37;11.43;;;3.90;;
75499;SDS011;64076;51.466;7.260;2023-05-23T11:34:04;12.50;;;4.28;;
75499;SDS011;64076;51.466;7.260;2023-05-23T11:36:31;8.77;;;4.20;;
75499;SDS011;64076;51.466;7.260;2023-05-23T11:39:00;9.32;;;3.83;;
75499;SDS011;64076;51.466;7.260;2023-05-23T11:41:27;8.38;;;3.95;;
75499;SDS011;64076;51.466;7.260;2023-05-23T11:43:54;10.50;;;4.22;;
75499;SDS011;64076;51.466;7.260;2023-05-23T11:46:19;9.17;;;3.83;;
75499;SDS011;64076;51.466;7.260;2023-05-23T11:48:46;13.27;;;4.53;;
75499;SDS011;64076;51.466;7.260;2023-05-23T11:51:12;7.32;;;3.70;;
75499;SDS011;64076;51.466;7.260;2023-05-23T11:53:39;13.63;;;4.50;;
75499;SDS011;64076;51.466;7.260;2023-05-23T11:56:05;10.82;;;3.72;;
75499;SDS011;64076;51.466;7.260;2023-05-23T11:58:34;5.47;;;3.03;;
75499;SDS011;64076;51.466;7.260;2023-05-23T12:01:08;4.97;;;3.40;;
75499;SDS011;64076;51.466;7.260;2023-05-23T12:03:35;11.40;;;3.88;;
75499;SDS011;64076;51.466;7.260;2023-05-23T12:06:19;6.47;;;3.22;;
75499;SDS011;64076;51.466;7.260;2023-05-23T12:08:46;6.70;;;3.03;;
75499;SDS011;64076;51.466;7.260;2023-05-23T12:11:12;5.80;;;3.58;;
75499;SDS011;64076;51.466;7.260;2023-05-23T12:13:39;5.13;;;3.38;;
75499;SDS011;64076;51.466;7.260;2023-05-23T12:16:06;4.90;;;3.60;;
75499;SDS011;64076;51.466;7.260;2023-05-23T12:18:33;4.75;;;2.90;;
75499;SDS011;64076;51.466;7.260;2023-05-23T12:21:03;5.80;;;3.20;;
75499;SDS011;64076;51.466;7.260;2023-05-23T12:23:31;3.72;;;2.75;;
75499;SDS011;64076;51.466;7.260;2023-05-23T12:25:58;4.60;;;3.13;;
75499;SDS011;64076;51.466;7.260;2023-05-23T12:28:39;4.83;;;3.40;;
75499;SDS011;64076;51.466;7.260;2023-05-23T12:31:12;4.75;;;3.20;;
75499;SDS011;64076;51.466;7.260;2023-05-23T12:33:42;4.68;;;3.15;;
75499;SDS011;64076;51.466;7.260;2023-05-23T12:36:13;5.03;;;2.83;;
75499;SDS011;64076;51.466;7.260;2023-05-23T12:38:40;4.10;;;3.20;;
75499;SDS011;64076;51.466;7.260;2023-05-23T12:41:09;4.55;;;3.25;;
75499;SDS011;64076;51.466;7.260;2023-05-23T12:43:39;4.32;;;3.17;;
75499;SDS011;64076;51.466;7.260;2023-05-23T12:46:05;3.30;;;2.90;;
75499;SDS011;64076;51.466;7.260;2023-05-23T12:48:32;5.17;;;2.90;;
75499;SDS011;64076;51.466;7.260;2023-05-23T12:50:57;5.35;;;3.15;;
75499;SDS011;64076;51.466;7.260;2023-05-23T12:53:24;4.70;;;3.00;;
75499;SDS011;64076;51.466;7.260;2023-05-23T12:55:50;4.43;;;3.00;;
75499;SDS011;64076;51.466;7.260;2023-05-23T12:58:16;4.20;;;2.90;;
75499;SDS011;64076;51.466;7.260;2023-05-23T13:00:42;4.93;;;3.00;;
75499;SDS011;64076;51.466;7.260;2023-05-23T13:03:07;5.15;;;2.83;;
75499;SDS011;64076;51.466;7.260;2023-05-23T13:05:33;4.00;;;2.77;;
75499;SDS011;64076;51.466;7.260;2023-05-23T13:07:59;6.78;;;3.03;;
75499;SDS011;64076;51.466;7.260;2023-05-23T13:10:24;6.03;;;2.87;;
75499;SDS011;64076;51.466;7.260;2023-05-23T13:12:50;4.03;;;2.77;;
75499;SDS011;64076;51.466;7.260;2023-05-23T13:15:16;6.90;;;3.30;;
75499;SDS011;64076;51.466;7.260;2023-05-23T13:17:41;4.82;;;3.00;;
75499;SDS011;64076;51.466;7.260;2023-05-23T13:20:07;4.67;;;3.20;;
75499;SDS011;64076;51.466;7.260;2023-05-23T13:22:35;4.32;;;2.90;;
75499;SDS011;64076;51.466;7.260;2023-05-23T13:25:00;4.77;;;2.80;;
75499;SDS011;64076;51.466;7.260;2023-05-23T13:27:26;4.07;;;3.15;;
75499;SDS011;64076;51.466;7.260;2023-05-23T13:29:51;5.43;;;3.03;;
75499;SDS011;64076;51.466;7.260;2023-05-23T13:32:17;4.55;;;3.10;;
75499;SDS011;64076;51.466;7.260;2023-05-23T13:34:42;11.17;;;3.20;;
75499;SDS011;64076;51.466;7.260;2023-05-23T13:37:08;5.73;;;3.13;;
75499;SDS011;64076;51.466;7.260;2023-05-23T13:39:33;10.15;;;3.15;;
75499;SDS011;64076;51.466;7.260;2023-05-23T13:41:59;5.40;;;2.90;;
75499;SDS011;64076;51.466;7.260;2023-05-23T13:44:24;6.67;;;3.23;;
75499;SDS011;64076;51.466;7.260;2023-05-23T13:46:50;5.35;;;2.83;;
75499;SDS011;64076;51.466;7.260;2023-05-23T13:49:15;6.87;;;2.90;;
75499;SDS011;64076;51.466;7.260;2023-05-23T13:51:41;5.90;;;3.10;;
75499;SDS011;64076;51.466;7.260;2023-05-23T13:54:08;4.70;;;2.75;;
75499;SDS011;64076;51.466;7.260;2023-05-23T13:56:34;8.10;;;2.90;;
75499;SDS011;64076;51.466;7.260;2023-05-23T13:59:00;4.85;;;2.92;;
75499;SDS011;64076;51.466;7.260;2023-05-23T14:01:26;5.03;;;2.90;;
75499;SDS011;64076;51.466;7.260;2023-05-23T14:03:52;4.38;;;2.63;;
75499;SDS011;64076;51.466;7.260;2023-05-23T14:06:17;5.93;;;2.90;;
75499;SDS011;64076;51.466;7.260;2023-05-23T14:08:43;5.80;;;3.27;;
75499;SDS011;64076;51.466;7.260;2023-05-23T14:11:08;5.28;;;2.72;;
75499;SDS011;64076;51.466;7.260;2023-05-23T14:13:34;4.30;;;2.53;;
75499;SDS011;64076;51.466;7.260;2023-05-23T14:16:00;5.60;;;2.90;;
75499;SDS011;64076;51.466;7.260;2023-05-23T14:18:25;4.83;;;2.73;;
75499;SDS011;64076;51.466;7.260;2023-05-23T14:20:51;7.80;;;2.70;;
75499;SDS011;64076;51.466;7.260;2023-05-23T14:23:16;7.68;;;3.00;;
75499;SDS011;64076;51.466;7.260;2023-05-23T14:25:42;3.50;;;2.30;;
75499;SDS011;64076;51.466;7.260;2023-05-23T14:28:08;4.22;;;2.75;;
75499;SDS011;64076;51.466;7.260;2023-05-23T14:30:34;4.83;;;2.50;;
75499;SDS011;64076;51.466;7.260;2023-05-23T14:32:59;3.35;;;2.80;;
75499;SDS011;64076;51.466;7.260;2023-05-23T14:35:25;4.97;;;2.70;;
75499;SDS011;64076;51.466;7.260;2023-05-23T14:37:51;3.53;;;2.50;;
75499;SDS011;64076;51.466;7.260;2023-05-23T14:40:16;4.43;;;2.70;;
75499;SDS011;64076;51.466;7.260;2023-05-23T14:42:42;3.80;;;2.90;;
75499;SDS011;64076;51.466;7.260;2023-05-23T14:45:07;6.38;;;2.70;;
75499;SDS011;64076;51.466;7.260;2023-05-23T14:47:33;3.50;;;2.50;;
75499;SDS011;64076;51.466;7.260;2023-05-23T14:50:01;4.03;;;2.58;;
75499;SDS011;64076;51.466;7.260;2023-05-23T14:52:26;3.33;;;2.10;;
75499;SDS011;64076;51.466;7.260;2023-05-23T14:54:52;4.45;;;2.60;;
75499;SDS011;64076;51.466;7.260;2023-05-23T14:57:17;4.03;;;2.40;;
75499;SDS011;64076;51.466;7.260;2023-05-23T14:59:43;3.50;;;2.13;;
75499;SDS011;64076;51.466;7.260;2023-05-23T15:02:09;3.47;;;2.75;;
75499;SDS011;64076;51.466;7.260;2023-05-23T15:04:35;3.92;;;2.50;;
75499;SDS011;64076;51.466;7.260;2023-05-23T15:07:01;2.90;;;2.20;;
75499;SDS011;64076;51.466;7.260;2023-05-23T15:09:26;3.07;;;2.20;;
75499;SDS011;64076;51.466;7.260;2023-05-23T15:11:52;3.17;;;2.33;;
75499;SDS011;64076;51.466;7.260;2023-05-23T15:14:18;3.15;;;2.40;;
75499;SDS011;64076;51.466;7.260;2023-05-23T15:16:44;5.00;;;2.67;;